Gayville, New York
Current Conditions -  °F | °C
As of 11:54 PM on Sunday 19 Oct 2014 (Local Time) from KSYR Reporting Station
Few Clouds Few Clouds  
Wind Chill: 39°   Ceiling: Unl
Heat Index: 42°   Visibility: 10mi
Dew Point: 32°   Wind: 5mph
Humidity: 69%   Direction: 240°WSW
Pressure: 30.04"   Gusts: NA
Location:  43.2999°N, 76.0002°W
Report Text: KSYR 200354Z 24004KT 10SM FEW035 05/00 A3004 RMK SLP174 T00530000
Loading
Personal Weather Stations






























Interactive Weather Map
Tropical Storm Tracking
New forecast layout! Learn more

10-Day Weather Forecast

Advertisements
Track Severe Weather on mobile